Weather at Abel Monteverde Heliport

Public forecast

Using degrees Celsius for public forecast. Weather courtesy of forecast.io.

Closest aviation weather report (METAR) to Abel Monteverde Heliport

Closest report is Rosario Islas Malvinas International Airport, 84.8 nm (157.0 km) E. Retrieved 2022/01/22 19:00 UTC (1 hour ago):

SAAR 221900Z 20026KT 9999 SCT023 BKN026 26/21 Q1006 RMK PP000

Closest aviation forecast (TAF) to Abel Monteverde Heliport

Closest forecast is Rosario Islas Malvinas International Airport, 84.8 nm (157.0 km) E. Retrieved 2022/01/22 18:20 UTC (2 hours ago):

TAF SAAR 221700Z 2218/2318 14015KT 9999 FEW045TCU BKN100 TX32/2218Z TN20/2309Z TEMPO 2219/2304 18020KT 5000 TSRA BKN015 FEW040CB BKN050 BECMG 2304/2306 14015G25KT 3000 TSRA BKN015 FEW040CB BKN060 BECMG 2314/2313 09010KT 8000 RA BKN015 BKN050 BECMG 2316/2318 14010KT 9999 SCT020 FEW040TCU BKN100